Latest Weather Observations for Cooktown

IDQ60801

Issued at 6:13 pm EST Sunday 4 June 2023 (issued every 10 minutes, with the page automatically refreshed every 10 minutes)

About weather observations | Map of weather stations | Latest weather observations for QLD | Other Formats
Station Details ID: 031209 Name: COOKTOWN AIRPORT Lat: -15.45 Lon: 145.19 Height: 4.8 m
Data from the previous 72 hours. | See also: Recent months at Cooktown
Date/Time
EST
Temp
°C
App
Temp
°C
Dew
Point
°C
Rel
Hum
%
Delta-T
°C
Wind Press
QNH
hPa
Press
MSL
hPa
Rain since
9am
mm
Dir  Spd
km/h
Gust
km/h
Spd
kts
Gust
kts
04/06:00pm 24.6 24.8 20.5 78 2.7 SE 20 30 11 16 1014.2 1014.2 0.2
04/05:30pm 25.2 25.5 20.7 76 2.9 SE 20 33 11 18 1014.0 1014.0 0.2
04/05:00pm 25.7 25.6 20.7 74 3.3 SE 22 35 12 19 1014.0 1014.0 0.2
04/04:30pm 26.2 26.6 21.0 73 3.4 SE 20 32 11 17 1013.9 1013.9 0.2
04/04:00pm 26.6 26.1 21.4 73 3.5 SE 26 37 14 20 1013.7 1013.7 0.2
04/03:30pm 26.6 26.1 21.4 73 3.5 SE 26 39 14 21 1013.8 1013.8 0.2
04/03:00pm 26.7 26.7 21.7 74 3.3 SE 24 37 13 20 1013.9 1013.9 0.2
04/02:30pm 27.2 28.0 21.7 72 3.7 SE 20 30 11 16 1014.0 1014.0 0.2
04/02:00pm 27.5 26.3 20.8 67 4.4 ESE 28 39 15 21 1014.1 1014.1 0.2
04/01:30pm 26.9 26.4 20.7 69 4.1 SE 24 35 13 19 1014.6 1014.6 0.2
04/01:00pm 27.3 26.7 20.4 66 4.5 SE 24 35 13 19 1014.9 1014.9 0.2
04/12:30pm 28.5 27.8 20.2 60 5.5 ESE 24 35 13 19 1015.3 1015.3 0.2
04/12:00pm 28.4 27.3 20.2 61 5.4 ESE 26 41 14 22 1015.9 1015.9 0.2
04/11:30am 28.3 28.1 20.6 63 5.1 ESE 22 32 12 17 1016.2 1016.2 0.2
04/11:00am 28.0 26.9 20.3 63 5.1 ESE 26 39 14 21 1016.6 1016.6 0.2
04/10:30am 28.0 27.2 20.8 65 4.8 ESE 26 35 14 19 1016.7 1016.7 0.0
04/10:00am 27.1 25.7 19.7 64 4.8 ESE 26 35 14 19 1016.7 1016.7 0.0
04/09:30am 26.2 25.2 20.5 71 3.7 ESE 26 43 14 23 1016.8 1016.8 0.0
04/09:00am 25.8 25.6 20.6 73 3.4 ESE 22 35 12 19 1016.8 1016.8 1.2
04/08:30am 25.4 25.6 21.3 78 2.7 ESE 22 41 12 22 1016.6 1016.6 1.2
04/08:00am 25.1 25.2 21.2 79 2.6 E 22 32 12 17 1016.1 1016.1 1.2
04/07:30am 24.6 25.1 21.1 81 2.3 E 20 30 11 16 1015.7 1015.7 1.2
04/07:00am 24.0 24.9 21.5 86 1.6 E 19 32 10 17 1015.5 1015.5 1.2
04/06:30am 23.4 26.0 22.0 92 0.9 ENE 11 20 6 11 1015.3 1015.3 1.2
04/06:02am 23.0 25.2 21.8 93 0.8 ENE 13 22 7 12 1015.0 1015.0 1.2
04/06:00am 23.0 24.8 21.8 93 0.8 ENE 15 22 8 12 1015.1 1015.1 1.2
04/05:44am 23.4 24.9 22.0 92 0.9 E 17 28 9 15 1015.1 1015.1 1.2
04/05:42am 23.4 24.9 22.0 92 0.9 E 17 28 9 15 1015.1 1015.1 1.2
04/05:30am 23.2 25.4 21.8 92 0.9 E 13 17 7 9 1014.9 1014.9 1.2
04/05:00am 22.8 24.1 21.6 93 0.8 ESE 17 22 9 12 1014.7 1014.7 1.2
04/04:34am 22.7 23.4 21.5 93 0.8 ESE 20 30 11 16 1014.7 1014.7 1.2
04/04:30am 22.7 23.1 21.7 94 0.7 ESE 22 37 12 20 1014.7 1014.7 1.2
04/04:00am 23.4 23.7 22.2 93 0.8 ESE 24 41 13 22 1014.4 1014.4 1.2
04/03:38am 23.4 25.1 22.4 94 0.7 E 17 26 9 14 1014.4 1014.4 1.2
04/03:30am 23.3 24.0 22.3 94 0.7 E 22 35 12 19 1014.4 1014.4 1.2
04/03:13am 23.9 24.3 22.5 92 0.9 E 24 32 13 17 1014.4 1014.4 0.0
04/03:06am 24.1 24.5 22.4 90 1.1 E 24 33 13 18 1014.4 1014.4 0.0
04/03:00am 24.1 23.7 22.4 90 1.1 ESE 28 37 15 20 1014.4 1014.4 0.0
04/02:30am 24.3 26.3 22.2 88 1.4 ESE 15 26 8 14 1014.6 1014.6 0.0
04/02:00am 23.9 26.4 22.5 92 0.9 ESE 13 19 7 10 1014.6 1014.6 0.0
04/01:52am 23.7 26.5 22.3 92 0.9 SE 11 19 6 10 1014.6 1014.6 0.0
04/01:30am 23.7 26.0 22.1 91 1.1 SE 13 17 7 9 1014.9 1014.9 0.0
04/01:00am 23.4 25.8 22.2 93 0.8 SE 13 17 7 9 1015.1 1015.1 0.0
04/12:50am 23.3 25.6 22.1 93 0.8 SE 13 20 7 11 1015.1 1015.1 0.0
04/12:30am 23.0 25.2 21.8 93 0.8 SSE 13 19 7 10 1015.2 1015.2 0.0
04/12:18am 22.9 25.7 21.5 92 0.9 SSE 9 15 5 8 1015.4 1015.4 0.0
04/12:00am 23.1 25.5 21.5 91 1.1 SSE 11 17 6 9 1015.6 1015.6 0.0
 
Date/Time
EST
Temp
°C
App
Temp
°C
Dew
Point
°C
Rel
Hum
%
Delta-T
°C
Wind Press
QNH
hPa
Press
MSL
hPa
Rain since
9am
mm
Dir  Spd
km/h
Gust
km/h
Spd
kts
Gust
kts
03/11:40pm 23.2 25.6 21.6 91 1.1 SE 11 19 6 10 1015.9 1015.9 0.0
03/11:30pm 23.2 25.6 21.6 91 1.1 SE 11 19 6 10 1015.9 1015.9 0.0
03/11:02pm 23.3 24.7 21.9 92 0.9 SE 17 24 9 13 1016.1 1016.1 0.0
03/11:00pm 23.3 25.1 21.9 92 0.9 SE 15 24 8 13 1016.2 1016.2 0.0
03/10:36pm 23.5 24.9 21.8 90 1.1 SE 17 26 9 14 1016.3 1016.3 0.0
03/10:30pm 23.8 25.2 21.9 89 1.3 SE 17 28 9 15 1016.4 1016.4 0.0
03/10:00pm 23.9 25.3 21.8 88 1.4 SE 17 24 9 13 1016.4 1016.4 0.0
03/09:30pm 23.4 25.4 21.5 89 1.3 ESE 13 20 7 11 1016.4 1016.4 0.0
03/09:00pm 23.7 25.9 21.8 89 1.3 SE 13 22 7 12 1016.3 1016.3 0.0
03/08:30pm 23.7 25.9 21.8 89 1.3 SE 13 22 7 12 1016.4 1016.4 0.0
03/08:00pm 23.8 25.5 21.7 88 1.4 SE 15 22 8 12 1016.1 1016.1 0.0
03/07:30pm 23.9 25.6 21.6 87 1.5 SE 15 26 8 14 1015.9 1015.9 0.0
03/07:00pm 23.9 25.7 21.2 85 1.8 SE 13 19 7 10 1015.5 1015.5 0.0
03/06:30pm 24.0 25.9 21.3 85 1.8 SE 13 20 7 11 1015.3 1015.3 0.0
03/06:00pm 24.3 26.2 21.4 84 1.9 SE 13 20 7 11 1015.0 1015.0 0.0
03/05:30pm 24.9 26.4 21.2 80 2.4 SE 15 24 8 13 1014.8 1014.8 0.0
03/05:00pm 25.8 26.2 21.0 75 3.2 SE 20 28 11 15 1014.7 1014.7 0.0
03/04:30pm 26.3 26.6 20.8 71 3.6 SE 20 33 11 18 1014.5 1014.5 0.0
03/04:00pm 27.0 27.3 20.8 69 4.1 SE 20 33 11 18 1014.4 1014.4 0.0
03/03:30pm 27.2 26.9 20.3 66 4.5 SE 22 30 12 16 1014.4 1014.4 0.0
03/03:00pm 27.7 27.9 21.3 68 4.3 SE 22 39 12 21 1014.6 1014.6 0.0
03/02:30pm 27.7 27.6 20.8 66 4.6 SE 22 33 12 18 1014.9 1014.9 0.0
03/02:00pm 28.4 29.2 21.7 67 4.5 ESE 20 35 11 19 1015.2 1015.2 0.0
03/01:30pm 28.4 29.3 21.9 68 4.4 SE 20 35 11 19 1015.8 1015.8 0.0
03/01:00pm 28.3 27.7 21.3 65 4.7 ESE 26 37 14 20 1016.2 1016.2 0.0
03/12:30pm 28.2 28.1 21.5 67 4.5 ESE 24 35 13 19 1016.7 1016.7 0.0
03/12:00pm 28.1 28.7 22.1 70 4.0 SE 22 33 12 18 1017.2 1017.2 0.0
03/11:30am 28.0 27.8 21.3 67 4.5 ESE 24 35 13 19 1017.6 1017.6 0.0
03/11:00am 27.9 27.9 21.7 69 4.1 ESE 24 33 13 18 1017.8 1017.8 0.0
03/10:30am 27.6 28.6 22.1 72 3.7 SE 20 33 11 18 1018.2 1018.2 0.0
03/10:00am 27.2 28.3 21.9 73 3.5 SE 19 28 10 15 1018.3 1018.3 0.0
03/09:30am 26.3 26.7 21.7 76 3.1 SE 22 33 12 18 1018.2 1018.2 0.0
03/09:00am 25.9 27.6 21.6 77 2.9 SE 15 20 8 11 1018.0 1018.0 0.0
03/08:30am 24.6 27.2 21.9 85 1.8 SE 11 19 6 10 1017.7 1017.7 0.0
03/08:00am 20.7 23.1 19.7 94 0.6 WNW 6 7 3 4 1017.5 1017.5 0.0
03/07:30am 19.0 20.8 18.3 96 0.4 W 6 7 3 4 1017.1 1017.1 0.0
03/07:00am 17.7 20.1 17.1 96 0.4 CALM 0 0 0 0 1016.7 1016.7 0.0
03/06:30am 17.4 18.6 16.8 96 0.4 WNW 6 9 3 5 1016.4 1016.4 0.0
03/06:00am 17.6 19.9 16.8 95 0.5 CALM 0 0 0 0 1016.1 1016.1 0.0
03/05:30am 17.6 19.9 16.8 95 0.5 CALM 0 0 0 0 1016.1 1016.1 0.0
03/05:00am 18.0 20.5 17.2 95 0.5 CALM 0 0 0 0 1015.8 1015.8 0.0
03/04:30am 17.9 19.1 16.9 94 0.6 NW 6 7 3 4 1015.7 1015.7 0.0
03/04:00am 18.6 20.0 17.4 93 0.7 SW 6 7 3 4 1015.5 1015.5 0.0
03/03:30am 18.9 21.2 17.7 93 0.7 W 2 7 1 4 1015.7 1015.7 0.0
03/03:00am 19.3 19.9 17.8 91 0.9 WNW 11 11 6 6 1016.0 1016.0 0.0
03/02:30am 21.6 23.8 19.2 86 1.5 S 6 9 3 5 1016.0 1016.0 0.0
03/02:00am 22.4 24.1 19.4 83 1.9 SE 9 13 5 7 1016.3 1016.3 0.0
03/01:30am 22.6 23.9 19.4 82 2.0 SE 11 19 6 10 1016.5 1016.5 0.0
03/01:00am 22.5 23.8 19.3 82 2.0 SE 11 17 6 9 1016.9 1016.9 0.0
03/12:30am 22.9 23.5 19.5 81 2.2 SE 15 26 8 14 1017.1 1017.1 0.0
03/12:00am 23.0 23.7 19.6 81 2.2 SE 15 24 8 13 1017.2 1017.2 0.0
 
Date/Time
EST
Temp
°C
App
Temp
°C
Dew
Point
°C
Rel
Hum
%
Delta-T
°C
Wind Press
QNH
hPa
Press
MSL
hPa
Rain since
9am
mm
Dir  Spd
km/h
Gust
km/h
Spd
kts
Gust
kts
02/11:30pm 23.0 23.8 19.8 82 2.1 SE 15 24 8 13 1017.3 1017.3 0.0
02/11:00pm 23.0 24.2 19.8 82 2.1 SE 13 24 7 13 1017.6 1017.6 0.0
02/10:30pm 23.0 24.5 19.8 82 2.1 SE 11 20 6 11 1017.6 1017.6 0.0
02/10:00pm 23.2 24.1 20.0 82 2.1 SE 15 20 8 11 1017.5 1017.5 0.0
02/09:30pm 23.2 24.4 20.0 82 2.1 SE 13 26 7 14 1017.6 1017.6 0.0
02/09:00pm 23.5 24.1 20.2 82 2.1 SE 17 24 9 13 1017.4 1017.4 0.0
02/08:30pm 23.4 24.6 20.0 81 2.2 SE 13 20 7 11 1017.4 1017.4 0.0
02/08:00pm 23.4 25.1 20.2 82 2.1 SE 11 17 6 9 1017.0 1017.0 0.0
02/07:30pm 23.4 24.6 20.0 81 2.2 SE 13 22 7 12 1016.5 1016.5 0.0
02/07:00pm 23.3 24.3 19.5 79 2.4 ESE 13 17 7 9 1016.2 1016.2 0.0
02/06:30pm 23.2 24.2 19.4 79 2.4 ESE 13 20 7 11 1015.8 1015.8 0.0
02/06:00pm 23.7 24.7 19.4 77 2.7 ESE 13 20 7 11 1015.7 1015.7 0.0
02/05:30pm 24.4 24.2 19.7 75 3.0 ESE 20 32 11 17 1015.5 1015.5 0.0
02/05:00pm 25.1 24.5 19.7 72 3.5 ESE 22 32 12 17 1015.3 1015.3 0.0
02/04:30pm 25.7 25.3 19.3 67 4.1 ESE 20 37 11 20 1015.1 1015.1 0.0
02/04:00pm 26.0 24.6 18.9 65 4.5 ESE 24 35 13 19 1014.9 1014.9 0.0
02/03:30pm 26.4 25.2 18.5 62 5.0 ESE 22 39 12 21 1014.9 1014.9 0.0
02/03:00pm 27.0 25.6 18.8 60 5.3 SE 24 37 13 20 1014.7 1014.7 0.0
02/02:30pm 27.1 25.6 17.8 56 5.9 ESE 22 39 12 21 1014.8 1014.8 0.0
02/02:00pm 27.5 26.5 17.9 55 6.1 SE 20 35 11 19 1015.1 1015.1 0.0
02/01:30pm 27.3 26.4 18.3 58 5.7 SE 20 32 11 17 1015.6 1015.6 0.0
02/01:00pm 27.4 26.8 19.7 63 5.0 SE 22 32 12 17 1016.1 1016.1 0.0
02/12:30pm 26.9 25.8 19.5 64 4.8 ESE 24 35 13 19 1016.4 1016.4 0.0
02/12:00pm 27.6 27.1 19.1 59 5.5 ESE 20 32 11 17 1016.8 1016.8 0.0
02/11:30am 27.8 28.0 19.3 60 5.5 SE 17 26 9 14 1017.3 1017.3 0.0
02/11:00am 27.7 27.8 20.0 63 5.0 SE 19 26 10 14 1017.6 1017.6 0.0
02/10:30am 27.0 26.9 19.9 65 4.6 SE 20 32 11 17 1017.8 1017.8 0.0
02/10:00am 25.8 26.2 19.9 70 3.8 SE 17 24 9 13 1017.9 1017.9 0.0
02/09:30am 25.3 25.6 19.7 71 3.6 ESE 17 26 9 14 1017.9 1017.9 0.0
02/09:00am 25.3 26.0 20.5 75 3.1 SE 17 28 9 15 1017.7 1017.7 0.0
02/08:30am 24.0 26.9 21.7 87 1.5 SE 9 24 5 13 1017.5 1017.5 0.0
02/08:00am 19.1 20.9 18.3 95 0.5 W 6 9 3 5 1017.1 1017.1 0.0
02/07:30am 18.1 19.0 17.5 96 0.4 WNW 9 11 5 6 1016.8 1016.8 0.0
02/07:00am 17.1 18.2 16.5 96 0.4 WNW 6 7 3 4 1016.5 1016.5 0.0
02/06:30am 16.8 17.7 16.2 96 0.4 WNW 6 7 3 4 1016.2 1016.2 0.0
02/06:00am 16.9 17.7 16.3 96 0.4 W 7 9 4 5 1015.8 1015.8 0.0
02/05:30am 16.9 18.3 16.3 96 0.4 WNW 4 7 2 4 1015.8 1015.8 0.0
02/05:00am 16.9 17.9 16.3 96 0.4 WNW 6 9 3 5 1015.8 1015.8 0.0
02/04:30am 17.2 19.4 16.6 96 0.4 CALM 0 0 0 0 1015.8 1015.8 0.0
02/04:00am 17.3 18.4 16.5 95 0.5 W 6 7 3 4 1015.6 1015.6 0.0
02/03:30am 17.4 18.9 16.6 95 0.5 WNW 4 7 2 4 1015.5 1015.5 0.0
02/03:00am 17.7 18.8 16.7 94 0.6 W 6 7 3 4 1015.5 1015.5 0.0
02/02:30am 18.1 19.8 17.1 94 0.6 WNW 4 7 2 4 1015.8 1015.8 0.0
02/02:00am 18.1 20.5 17.0 93 0.7 CALM 0 0 0 0 1016.0 1016.0 0.0
02/01:30am 18.4 20.8 17.1 92 0.8 CALM 0 0 0 0 1016.1 1016.1 0.0
02/01:00am 18.7 20.7 17.0 90 1.0 W 2 7 1 4 1016.3 1016.3 0.0
02/12:30am 19.4 20.2 17.2 87 1.3 NW 9 11 5 6 1016.5 1016.5 0.0
02/12:00am 21.8 23.5 18.4 81 2.1 S 7 13 4 7 1016.4 1016.4 0.0
 
Date/Time
EST
Temp
°C
App
Temp
°C
Dew
Point
°C
Rel
Hum
%
Delta-T
°C
Wind Press
QNH
hPa
Press
MSL
hPa
Rain since
9am
mm
Dir  Spd
km/h
Gust
km/h
Spd
kts
Gust
kts
01/11:30pm 22.7 23.9 19.1 80 2.3 SE 11 19 6 10 1016.5 1016.5 0.0
01/11:00pm 22.6 23.7 18.8 79 2.4 SE 11 17 6 9 1016.7 1016.7 0.0
01/10:30pm 22.8 23.9 18.8 78 2.5 SE 11 17 6 9 1016.8 1016.8 0.0
01/10:00pm 23.0 23.6 18.5 76 2.8 SE 13 19 7 10 1016.7 1016.7 0.0
01/09:30pm 23.0 23.9 18.5 76 2.8 SE 11 17 6 9 1016.7 1016.7 0.0
01/09:00pm 23.3 23.8 18.4 74 3.1 SE 13 22 7 12 1016.5 1016.5 0.0
01/08:30pm 23.3 23.7 18.2 73 3.2 SSE 13 20 7 11 1016.4 1016.4 0.0
01/08:00pm 23.6 24.1 18.3 72 3.3 SE 13 20 7 11 1016.1 1016.1 0.0
01/07:30pm 23.6 24.5 18.3 72 3.3 SE 11 19 6 10 1015.7 1015.7 0.0
01/07:00pm 23.6 23.9 18.0 71 3.5 SE 13 22 7 12 1015.4 1015.4 0.0
01/06:30pm 23.8 23.7 17.8 69 3.7 SE 15 20 8 11 1015.2 1015.2 0.0

Other formats

Comma delimited format used in spreadsheet applications
http://www.bom.gov.au/fwo/IDQ60801/IDQ60801.95283.axf

JavaScript Object Notation format (JSON) in row-major order
http://www.bom.gov.au/fwo/IDQ60801/IDQ60801.95283.json

Data quality

Most of these data are generated automatically and are frequently updated. Quality checks on data are not normally performed. It is possible for incorrect values to appear. Refer to information at About Latest Weather Observations and please check the disclaimer before using these data.